Portland — WDG2201 — position and weather

sailwx.info

Track history (hours):
 
Tides and Currents Weather Stations Pressure Air Temp Water Temp Dewpoint Dewpoint Depression Visibility Wind Speed Wind Dir Waves Ship Positions

Portland

Owner: Shaver Transportation Company, Portland, OR. More information available from US FCC via Universal Licensing System and Coast Guard Vessel Documentation Center.

Last reported at 2015-Jan-31 15:31 UTC. Time now 2015-Jan-31 16:15 UTC.
Position N 46°07' W 122°59'.

Length 27 m; draft 4 m.

Type: Towing. MMSI: 367315814.

Date/timePositionNaut miles runAvg speedWind from/ knotsBaromVisibWave heightAir tempDewpointWater temp
2015-Jan-31 15:31N 46°07' W 122°59'5 0.7
2015-Jan-31 08:33N 46°04' W 122°53'5 5.3
2015-Jan-31 07:33N 45°59' W 122°50'0 0.0
2015-Jan-31 06:30N 45°59' W 122°50'0 0.0
2015-Jan-31 05:30N 45°59' W 122°50'0 0.0
2015-Jan-31 04:30N 45°59' W 122°50'2 1.8
2015-Jan-31 03:33N 46°01' W 122°51'1 1.4
2015-Jan-31 02:33N 46°02' W 122°53'4 4.1
2015-Jan-31 01:28N 46°05' W 122°56'0 0.0
2015-Jan-31 00:28N 46°05' W 122°56'0 0.0
2015-Jan-30 23:28N 46°05' W 122°56'0 0.0
2015-Jan-30 22:28N 46°05' W 122°56'1 0.6
2015-Jan-30 21:33N 46°06' W 122°56'1 0.0
2015-Jan-30 05:33N 46°05' W 122°56'0 0.0
2015-Jan-30 04:27N 46°05' W 122°56'5 0.8
2015-Jan-29 22:33N 46°02' W 122°52'1211.7
2015-Jan-29 21:34N 45°51' W 122°47'1211.9
2015-Jan-29 20:34N 45°39' W 122°45'1 0.5
2015-Jan-29 19:33N 45°38' W 122°45'0 0.4
2015-Jan-29 18:33N 45°39' W 122°45'0 0.0
2015-Jan-29 17:33N 45°39' W 122°45'0 0.0
2015-Jan-29 16:33N 45°39' W 122°45'0 0.0
2015-Jan-29 15:33N 45°39' W 122°45'0 0.0
2015-Jan-29 14:33N 45°39' W 122°45'0 0.0
2015-Jan-29 13:33N 45°39' W 122°45'0 0.0
2015-Jan-29 12:33N 45°39' W 122°45'0 0.0
2015-Jan-29 11:33N 45°39' W 122°45'0 0.0
2015-Jan-29 10:33N 45°39' W 122°45'0 0.0
2015-Jan-29 09:33N 45°39' W 122°45'0 0.0
2015-Jan-29 08:33N 45°39' W 122°45'0 0.0
2015-Jan-29 07:33N 45°39' W 122°45'0 0.0
2015-Jan-29 06:33N 45°39' W 122°45'0 0.0
2015-Jan-29 05:33N 45°39' W 122°45'0 0.0
2015-Jan-29 04:33N 45°39' W 122°45'0 0.0
2015-Jan-29 03:33N 45°39' W 122°45'3 2.7
2015-Jan-29 02:33N 45°36' W 122°47'3 3.4
2015-Jan-29 01:33N 45°34' W 122°44'0 0.0
2015-Jan-29 00:24N 45°34' W 122°44'0 0.5
2015-Jan-28 23:33N 45°34' W 122°44'3 3.1
2015-Jan-28 22:33N 45°36' W 122°47'4 4.3
2015-Jan-28 21:33N 45°33' W 122°43'3 3.0
2015-Jan-28 20:33N 45°35' W 122°46'1010.3
2015-Jan-28 19:33N 45°45' W 122°46'1110.6
2015-Jan-28 18:33N 45°56' W 122°48'6 5.9
2015-Jan-28 17:33N 46°01' W 122°52'0 0.5
2015-Jan-28 16:34N 46°02' W 122°53'0 0.3
2015-Jan-28 15:33N 46°02' W 122°52'5 4.5
2015-Jan-28 14:32N 46°05' W 122°56'0 0.0
2015-Jan-28 13:32N 46°05' W 122°56'0 0.0
2015-Jan-28 12:32N 46°05' W 122°56'0 0.0
2015-Jan-28 11:32N 46°05' W 122°56'0 0.0
2015-Jan-28 10:32N 46°05' W 122°56'0 0.0
2015-Jan-28 09:33N 46°05' W 122°56'0 0.0
2015-Jan-28 08:32N 46°05' W 122°56'0 0.0
2015-Jan-28 07:29N 46°05' W 122°56'0 0.0
2015-Jan-28 06:29N 46°05' W 122°56'0 0.0
2015-Jan-28 05:32N 46°05' W 122°56'0 0.0
2015-Jan-28 04:33N 46°05' W 122°56'0 0.0
2015-Jan-28 03:32N 46°05' W 122°56'0 0.0
2015-Jan-28 02:32N 46°05' W 122°56'0 0.0
2015-Jan-28 01:32N 46°05' W 122°56'0 0.0
2015-Jan-28 00:20N 46°05' W 122°56'0 0.1
2015-Jan-27 23:29N 46°05' W 122°56'0 0.0
2015-Jan-27 22:26N 46°05' W 122°56'6 6.6
2015-Jan-27 21:33N 46°01' W 122°51'2 2.0
2015-Jan-27 20:33N 45°59' W 122°50'0 0.3
2015-Jan-27 19:33N 45°59' W 122°50'5 4.6
2015-Jan-27 18:33N 45°55' W 122°48'1211.5
2015-Jan-27 17:33N 45°43' W 122°46'5 4.4
2015-Jan-27 16:29N 45°39' W 122°45'0 0.0
2015-Jan-27 15:26N 45°39' W 122°45'0 0.0
2015-Jan-27 14:29N 45°39' W 122°45'0 0.0
2015-Jan-27 13:29N 45°39' W 122°45'0 0.0
2015-Jan-27 12:32N 45°39' W 122°45'0 0.0
2015-Jan-27 11:29N 45°39' W 122°45'0 0.0
2015-Jan-27 10:23N 45°39' W 122°45'0 0.0
2015-Jan-27 09:23N 45°39' W 122°45'0 0.0
2015-Jan-27 08:32N 45°39' W 122°45'0 0.0
2015-Jan-27 07:29N 45°39' W 122°45'0 0.0
2015-Jan-27 06:29N 45°39' W 122°45'0 0.0
2015-Jan-27 05:32N 45°39' W 122°45'0 0.0
2015-Jan-27 04:32N 45°39' W 122°45'0 0.0
2015-Jan-27 03:29N 45°39' W 122°45'0 0.0
2015-Jan-27 02:32N 45°39' W 122°45'0 0.0
2015-Jan-27 01:26N 45°39' W 122°45'0 0.0
2015-Jan-27 00:29N 45°39' W 122°45'0 0.0
2015-Jan-26 23:29N 45°39' W 122°45'1 0.9
2015-Jan-26 22:33N 45°39' W 122°46'3 3.1
2015-Jan-26 21:29N 45°38' W 122°42'1 1.4
2015-Jan-26 20:33N 45°38' W 122°43'1 1.0
2015-Jan-26 19:30N 45°39' W 122°45'0 0.2
2015-Jan-26 18:28N 45°39' W 122°45'0 0.0
2015-Jan-26 17:25N 45°39' W 122°45'0 0.0
2015-Jan-26 16:31N 45°39' W 122°45'0 0.0
2015-Jan-26 15:28N 45°39' W 122°45'0 0.0
2015-Jan-26 14:19N 45°39' W 122°45'0 0.0
2015-Jan-26 13:31N 45°39' W 122°45'0 0.0
2015-Jan-26 12:31N 45°39' W 122°45'0 0.0
2015-Jan-26 11:31N 45°39' W 122°45'0 0.0
2015-Jan-26 10:31N 45°39' W 122°45'0 0.0
2015-Jan-26 09:31N 45°39' W 122°45'0 0.0
2015-Jan-26 08:16N 45°39' W 122°45'0 0.0
2015-Jan-26 07:22N 45°39' W 122°45'0 0.0
2015-Jan-26 06:25N 45°39' W 122°45'0 0.0
2015-Jan-26 05:10N 45°39' W 122°45'0 0.7
2015-Jan-26 04:28N 45°39' W 122°44'1 0.5
2015-Jan-26 03:31N 45°39' W 122°45'0 0.0
2015-Jan-26 02:19N 45°39' W 122°45'0 0.0
2015-Jan-26 01:19N 45°39' W 122°45'1 1.1
2015-Jan-26 00:34N 45°39' W 122°46'3 2.6
2015-Jan-25 23:33N 45°36' W 122°47'0 0.4
2015-Jan-25 22:33N 45°36' W 122°47'0 0.0
2015-Jan-25 21:33N 45°36' W 122°47'0 0.0
2015-Jan-25 20:33N 45°36' W 122°47'0 0.0
2015-Jan-25 19:33N 45°36' W 122°47'0 0.0
2015-Jan-25 18:33N 45°36' W 122°47'0 0.0
2015-Jan-25 17:33N 45°36' W 122°47'3 2.8
2015-Jan-25 16:34N 45°39' W 122°45'0 0.4
2015-Jan-25 15:32N 45°39' W 122°45'0 0.1
2015-Jan-25 14:33N 45°39' W 122°45'2 2.0
2015-Jan-25 13:33N 45°38' W 122°42'2 2.1
2015-Jan-25 12:33N 45°39' W 122°45'0 0.0
2015-Jan-25 11:33N 45°39' W 122°45'0 0.0
2015-Jan-25 10:33N 45°39' W 122°45'0 0.0
2015-Jan-25 09:33N 45°39' W 122°45'0 0.0
2015-Jan-25 08:33N 45°39' W 122°45'1 1.4
2015-Jan-25 07:33N 45°38' W 122°47'2 1.8
2015-Jan-25 06:33N 45°36' W 122°47'4 3.5
2015-Jan-25 05:33N 45°34' W 122°44'3 2.5
2015-Jan-25 04:33N 45°32' W 122°41'2 1.5
2015-Jan-25 03:33N 45°33' W 122°42'4 4.1
2015-Jan-25 02:34N 45°36' W 122°47'3 2.7
2015-Jan-25 01:30N 45°39' W 122°45'0 0.0
2015-Jan-25 00:33N 45°39' W 122°45'0 0.0
2015-Jan-24 23:30N 45°39' W 122°45'0 0.0
2015-Jan-24 22:30N 45°39' W 122°45'2 2.5
2015-Jan-24 21:34N 45°38' W 122°42'2 2.3
2015-Jan-24 20:31N 45°39' W 122°45'0 0.0
2015-Jan-24 19:28N 45°39' W 122°45'0 0.0
2015-Jan-24 18:31N 45°39' W 122°45'0 0.0
2015-Jan-24 17:31N 45°39' W 122°45'0 0.0
2015-Jan-24 16:31N 45°39' W 122°45'0 0.0
2015-Jan-24 15:31N 45°39' W 122°45'2 2.2
2015-Jan-24 14:34N 45°38' W 122°42'1 1.1
2015-Jan-24 13:33N 45°38' W 122°44'1 1.0
2015-Jan-24 12:34N 45°39' W 122°45'0 0.0
2015-Jan-24 11:29N 45°39' W 122°45'0 0.0
2015-Jan-24 10:29N 45°39' W 122°45'0 0.0
2015-Jan-24 09:32N 45°39' W 122°45'0 0.0
2015-Jan-24 08:29N 45°39' W 122°45'0 0.0
2015-Jan-24 07:29N 45°39' W 122°45'0 0.0
2015-Jan-24 06:32N 45°39' W 122°45'1 1.2
2015-Jan-24 05:33N 45°38' W 122°43'1 1.2
2015-Jan-24 04:33N 45°39' W 122°45'0 0.1
2015-Jan-24 03:33N 45°39' W 122°45'0 0.0
2015-Jan-24 02:30N 45°39' W 122°45'3 2.7
2015-Jan-24 01:33N 45°38' W 122°42'2 2.5
2015-Jan-24 00:33N 45°39' W 122°45'0 0.0
2015-Jan-23 23:33N 45°39' W 122°45'0 0.0
2015-Jan-23 22:21N 45°39' W 122°45'0 0.4
2015-Jan-23 21:33N 45°39' W 122°45'0 0.3
2015-Jan-23 20:33N 45°39' W 122°45'0 0.0
2015-Jan-23 19:32N 45°39' W 122°45'0 0.0
2015-Jan-23 18:31N 45°39' W 122°45'0 0.0
2015-Jan-23 17:31N 45°39' W 122°45'0 0.0
2015-Jan-23 16:31N 45°39' W 122°45'0 0.0
2015-Jan-23 15:31N 45°39' W 122°45'0 0.3
2015-Jan-23 14:33N 45°39' W 122°45'0 0.3
2015-Jan-23 13:33N 45°39' W 122°45'0 0.0
2015-Jan-23 12:33N 45°39' W 122°45'1 1.4
2015-Jan-23 11:33N 45°38' W 122°47'5 4.9
2015-Jan-23 10:31N 45°34' W 122°44'0 0.0
2015-Jan-23 09:31N 45°34' W 122°44'0 0.0
2015-Jan-23 08:31N 45°34' W 122°44'0 0.0
2015-Jan-23 07:28N 45°34' W 122°44'0 0.0
2015-Jan-23 06:28N 45°34' W 122°44'0 0.0
2015-Jan-23 05:26N 45°34' W 122°44'0 0.0
2015-Jan-23 04:31N 45°34' W 122°44'0 0.0
2015-Jan-23 03:28N 45°34' W 122°44'0 0.0
2015-Jan-23 02:32N 45°34' W 122°44'0 0.0
2015-Jan-23 01:26N 45°34' W 122°44'0 0.0
2015-Jan-23 00:25N 45°34' W 122°44'0 0.0
2015-Jan-22 23:28N 45°34' W 122°44'0 0.0
2015-Jan-22 22:28N 45°34' W 122°44'0 0.0
2015-Jan-22 21:28N 45°34' W 122°44'0 0.0
2015-Jan-22 20:28N 45°34' W 122°44'0 0.0
2015-Jan-22 19:28N 45°34' W 122°44'0 0.0
2015-Jan-22 18:31N 45°34' W 122°44'0 0.0
2015-Jan-22 17:28N 45°34' W 122°44'0 0.0
2015-Jan-22 16:31N 45°34' W 122°44'0 0.0
2015-Jan-22 15:28N 45°34' W 122°44'0 0.0
2015-Jan-22 14:22N 45°34' W 122°44'0 0.0
2015-Jan-22 13:28N 45°34' W 122°44'0 0.0
2015-Jan-22 12:31N 45°34' W 122°44'0 0.0
2015-Jan-22 11:28N 45°34' W 122°44'0 0.0
2015-Jan-22 10:31N 45°34' W 122°44'0 0.0
2015-Jan-22 09:31N 45°34' W 122°44'0 0.0
2015-Jan-22 08:28N 45°34' W 122°44'0 0.0
2015-Jan-22 07:28N 45°34' W 122°44'0 0.0
2015-Jan-22 06:31N 45°34' W 122°44'0 0.0
2015-Jan-22 05:25N 45°34' W 122°44'0 0.0
2015-Jan-22 04:28N 45°34' W 122°44'0 0.0
2015-Jan-22 03:31N 45°34' W 122°44'0 0.0
2015-Jan-22 02:31N 45°34' W 122°44'3 3.0
2015-Jan-22 01:33N 45°36' W 122°47'1 1.3
2015-Jan-22 00:33N 45°37' W 122°47'4 4.0
2015-Jan-21 23:34N 45°34' W 122°44'0 0.3
2015-Jan-21 22:50N 45°34' W 122°44'0 0.0
2015-Jan-21 22:46N 45°34' W 122°44'0 0.0
2015-Jan-21 22:34N 45°34' W 122°44'0 0.0
2015-Jan-21 21:33N 45°34' W 122°44'0 0.1
2015-Jan-21 20:33N 45°34' W 122°44'2 1.6
2015-Jan-21 19:34N 45°35' W 122°45'2 1.6
2015-Jan-21 18:33N 45°36' W 122°47'0 0.1
2015-Jan-21 17:34N 45°36' W 122°47'1 1.1
2015-Jan-21 16:34N 45°37' W 122°47'2 2.1
2015-Jan-21 15:33N 45°39' W 122°45'  
Track history (hours):
 
Tides and Currents Weather Stations Pressure Air Temp Water Temp Dewpoint Dewpoint Depression Visibility Wind Speed Wind Dir Waves Ship Positions

Portland

Owner: Shaver Transportation Company, Portland, OR. More information available from US FCC via Universal Licensing System and Coast Guard Vessel Documentation Center.

Last reported at 2015-Jan-31 15:31 UTC. Time now 2015-Jan-31 16:15 UTC.
Position N 46°07' W 122°59'.

Length 27 m; draft 4 m.

Type: Towing. MMSI: 367315814.

Date/timePositionNaut miles runAvg speedWind from/ knotsBaromVisibWave heightAir tempDewpointWater temp
2015-Jan-31 15:31N 46°07' W 122°59'5 0.7
2015-Jan-31 08:33N 46°04' W 122°53'5 5.3
2015-Jan-31 07:33N 45°59' W 122°50'0 0.0
2015-Jan-31 06:30N 45°59' W 122°50'0 0.0
2015-Jan-31 05:30N 45°59' W 122°50'0 0.0
2015-Jan-31 04:30N 45°59' W 122°50'2 1.8
2015-Jan-31 03:33N 46°01' W 122°51'1 1.4
2015-Jan-31 02:33N 46°02' W 122°53'4 4.1
2015-Jan-31 01:28N 46°05' W 122°56'0 0.0
2015-Jan-31 00:28N 46°05' W 122°56'0 0.0
2015-Jan-30 23:28N 46°05' W 122°56'0 0.0
2015-Jan-30 22:28N 46°05' W 122°56'1 0.6
2015-Jan-30 21:33N 46°06' W 122°56'1 0.0
2015-Jan-30 05:33N 46°05' W 122°56'0 0.0
2015-Jan-30 04:27N 46°05' W 122°56'5 0.8
2015-Jan-29 22:33N 46°02' W 122°52'1211.7
2015-Jan-29 21:34N 45°51' W 122°47'1211.9
2015-Jan-29 20:34N 45°39' W 122°45'1 0.5
2015-Jan-29 19:33N 45°38' W 122°45'0 0.4
2015-Jan-29 18:33N 45°39' W 122°45'0 0.0
2015-Jan-29 17:33N 45°39' W 122°45'0 0.0
2015-Jan-29 16:33N 45°39' W 122°45'0 0.0
2015-Jan-29 15:33N 45°39' W 122°45'0 0.0
2015-Jan-29 14:33N 45°39' W 122°45'0 0.0
2015-Jan-29 13:33N 45°39' W 122°45'0 0.0
2015-Jan-29 12:33N 45°39' W 122°45'0 0.0
2015-Jan-29 11:33N 45°39' W 122°45'0 0.0
2015-Jan-29 10:33N 45°39' W 122°45'0 0.0
2015-Jan-29 09:33N 45°39' W 122°45'0 0.0
2015-Jan-29 08:33N 45°39' W 122°45'0 0.0
2015-Jan-29 07:33N 45°39' W 122°45'0 0.0
2015-Jan-29 06:33N 45°39' W 122°45'0 0.0
2015-Jan-29 05:33N 45°39' W 122°45'0 0.0
2015-Jan-29 04:33N 45°39' W 122°45'0 0.0
2015-Jan-29 03:33N 45°39' W 122°45'3 2.7
2015-Jan-29 02:33N 45°36' W 122°47'3 3.4
2015-Jan-29 01:33N 45°34' W 122°44'0 0.0
2015-Jan-29 00:24N 45°34' W 122°44'0 0.5
2015-Jan-28 23:33N 45°34' W 122°44'3 3.1
2015-Jan-28 22:33N 45°36' W 122°47'4 4.3
2015-Jan-28 21:33N 45°33' W 122°43'3 3.0
2015-Jan-28 20:33N 45°35' W 122°46'1010.3
2015-Jan-28 19:33N 45°45' W 122°46'1110.6
2015-Jan-28 18:33N 45°56' W 122°48'6 5.9
2015-Jan-28 17:33N 46°01' W 122°52'0 0.5
2015-Jan-28 16:34N 46°02' W 122°53'0 0.3
2015-Jan-28 15:33N 46°02' W 122°52'5 4.5
2015-Jan-28 14:32N 46°05' W 122°56'0 0.0
2015-Jan-28 13:32N 46°05' W 122°56'0 0.0
2015-Jan-28 12:32N 46°05' W 122°56'0 0.0
2015-Jan-28 11:32N 46°05' W 122°56'0 0.0
2015-Jan-28 10:32N 46°05' W 122°56'0 0.0
2015-Jan-28 09:33N 46°05' W 122°56'0 0.0
2015-Jan-28 08:32N 46°05' W 122°56'0 0.0
2015-Jan-28 07:29N 46°05' W 122°56'0 0.0
2015-Jan-28 06:29N 46°05' W 122°56'0 0.0
2015-Jan-28 05:32N 46°05' W 122°56'0 0.0
2015-Jan-28 04:33N 46°05' W 122°56'0 0.0
2015-Jan-28 03:32N 46°05' W 122°56'0 0.0
2015-Jan-28 02:32N 46°05' W 122°56'0 0.0
2015-Jan-28 01:32N 46°05' W 122°56'0 0.0
2015-Jan-28 00:20N 46°05' W 122°56'0 0.1
2015-Jan-27 23:29N 46°05' W 122°56'0 0.0
2015-Jan-27 22:26N 46°05' W 122°56'6 6.6
2015-Jan-27 21:33N 46°01' W 122°51'2 2.0
2015-Jan-27 20:33N 45°59' W 122°50'0 0.3
2015-Jan-27 19:33N 45°59' W 122°50'5 4.6
2015-Jan-27 18:33N 45°55' W 122°48'1211.5
2015-Jan-27 17:33N 45°43' W 122°46'5 4.4
2015-Jan-27 16:29N 45°39' W 122°45'0 0.0
2015-Jan-27 15:26N 45°39' W 122°45'0 0.0
2015-Jan-27 14:29N 45°39' W 122°45'0 0.0
2015-Jan-27 13:29N 45°39' W 122°45'0 0.0
2015-Jan-27 12:32N 45°39' W 122°45'0 0.0
2015-Jan-27 11:29N 45°39' W 122°45'0 0.0
2015-Jan-27 10:23N 45°39' W 122°45'0 0.0
2015-Jan-27 09:23N 45°39' W 122°45'0 0.0
2015-Jan-27 08:32N 45°39' W 122°45'0 0.0
2015-Jan-27 07:29N 45°39' W 122°45'0 0.0
2015-Jan-27 06:29N 45°39' W 122°45'0 0.0
2015-Jan-27 05:32N 45°39' W 122°45'0 0.0
2015-Jan-27 04:32N 45°39' W 122°45'0 0.0
2015-Jan-27 03:29N 45°39' W 122°45'0 0.0
2015-Jan-27 02:32N 45°39' W 122°45'0 0.0
2015-Jan-27 01:26N 45°39' W 122°45'0 0.0
2015-Jan-27 00:29N 45°39' W 122°45'0 0.0
2015-Jan-26 23:29N 45°39' W 122°45'1 0.9
2015-Jan-26 22:33N 45°39' W 122°46'3 3.1
2015-Jan-26 21:29N 45°38' W 122°42'1 1.4
2015-Jan-26 20:33N 45°38' W 122°43'1 1.0
2015-Jan-26 19:30N 45°39' W 122°45'0 0.2
2015-Jan-26 18:28N 45°39' W 122°45'0 0.0
2015-Jan-26 17:25N 45°39' W 122°45'0 0.0
2015-Jan-26 16:31N 45°39' W 122°45'0 0.0
2015-Jan-26 15:28N 45°39' W 122°45'0 0.0
2015-Jan-26 14:19N 45°39' W 122°45'0 0.0
2015-Jan-26 13:31N 45°39' W 122°45'0 0.0
2015-Jan-26 12:31N 45°39' W 122°45'0 0.0
2015-Jan-26 11:31N 45°39' W 122°45'0 0.0
2015-Jan-26 10:31N 45°39' W 122°45'0 0.0
2015-Jan-26 09:31N 45°39' W 122°45'0 0.0
2015-Jan-26 08:16N 45°39' W 122°45'0 0.0
2015-Jan-26 07:22N 45°39' W 122°45'0 0.0
2015-Jan-26 06:25N 45°39' W 122°45'0 0.0
2015-Jan-26 05:10N 45°39' W 122°45'0 0.7
2015-Jan-26 04:28N 45°39' W 122°44'1 0.5
2015-Jan-26 03:31N 45°39' W 122°45'0 0.0
2015-Jan-26 02:19N 45°39' W 122°45'0 0.0
2015-Jan-26 01:19N 45°39' W 122°45'1 1.1
2015-Jan-26 00:34N 45°39' W 122°46'3 2.6
2015-Jan-25 23:33N 45°36' W 122°47'0 0.4
2015-Jan-25 22:33N 45°36' W 122°47'0 0.0
2015-Jan-25 21:33N 45°36' W 122°47'0 0.0
2015-Jan-25 20:33N 45°36' W 122°47'0 0.0
2015-Jan-25 19:33N 45°36' W 122°47'0 0.0
2015-Jan-25 18:33N 45°36' W 122°47'0 0.0
2015-Jan-25 17:33N 45°36' W 122°47'3 2.8
2015-Jan-25 16:34N 45°39' W 122°45'0 0.4
2015-Jan-25 15:32N 45°39' W 122°45'0 0.1
2015-Jan-25 14:33N 45°39' W 122°45'2 2.0
2015-Jan-25 13:33N 45°38' W 122°42'2 2.1
2015-Jan-25 12:33N 45°39' W 122°45'0 0.0
2015-Jan-25 11:33N 45°39' W 122°45'0 0.0
2015-Jan-25 10:33N 45°39' W 122°45'0 0.0
2015-Jan-25 09:33N 45°39' W 122°45'0 0.0
2015-Jan-25 08:33N 45°39' W 122°45'1 1.4
2015-Jan-25 07:33N 45°38' W 122°47'2 1.8
2015-Jan-25 06:33N 45°36' W 122°47'4 3.5
2015-Jan-25 05:33N 45°34' W 122°44'3 2.5
2015-Jan-25 04:33N 45°32' W 122°41'2 1.5
2015-Jan-25 03:33N 45°33' W 122°42'4 4.1
2015-Jan-25 02:34N 45°36' W 122°47'3 2.7
2015-Jan-25 01:30N 45°39' W 122°45'0 0.0
2015-Jan-25 00:33N 45°39' W 122°45'0 0.0
2015-Jan-24 23:30N 45°39' W 122°45'0 0.0
2015-Jan-24 22:30N 45°39' W 122°45'2 2.5
2015-Jan-24 21:34N 45°38' W 122°42'2 2.3
2015-Jan-24 20:31N 45°39' W 122°45'0 0.0
2015-Jan-24 19:28N 45°39' W 122°45'0 0.0
2015-Jan-24 18:31N 45°39' W 122°45'0 0.0
2015-Jan-24 17:31N 45°39' W 122°45'0 0.0
2015-Jan-24 16:31N 45°39' W 122°45'0 0.0
2015-Jan-24 15:31N 45°39' W 122°45'2 2.2
2015-Jan-24 14:34N 45°38' W 122°42'1 1.1
2015-Jan-24 13:33N 45°38' W 122°44'1 1.0
2015-Jan-24 12:34N 45°39' W 122°45'0 0.0
2015-Jan-24 11:29N 45°39' W 122°45'0 0.0
2015-Jan-24 10:29N 45°39' W 122°45'0 0.0
2015-Jan-24 09:32N 45°39' W 122°45'0 0.0
2015-Jan-24 08:29N 45°39' W 122°45'0 0.0
2015-Jan-24 07:29N 45°39' W 122°45'0 0.0
2015-Jan-24 06:32N 45°39' W 122°45'1 1.2
2015-Jan-24 05:33N 45°38' W 122°43'1 1.2
2015-Jan-24 04:33N 45°39' W 122°45'0 0.1
2015-Jan-24 03:33N 45°39' W 122°45'0 0.0
2015-Jan-24 02:30N 45°39' W 122°45'3 2.7
2015-Jan-24 01:33N 45°38' W 122°42'2 2.5
2015-Jan-24 00:33N 45°39' W 122°45'0 0.0
2015-Jan-23 23:33N 45°39' W 122°45'0 0.0
2015-Jan-23 22:21N 45°39' W 122°45'0 0.4
2015-Jan-23 21:33N 45°39' W 122°45'0 0.3
2015-Jan-23 20:33N 45°39' W 122°45'0 0.0
2015-Jan-23 19:32N 45°39' W 122°45'0 0.0
2015-Jan-23 18:31N 45°39' W 122°45'0 0.0
2015-Jan-23 17:31N 45°39' W 122°45'0 0.0
2015-Jan-23 16:31N 45°39' W 122°45'0 0.0
2015-Jan-23 15:31N 45°39' W 122°45'0 0.3
2015-Jan-23 14:33N 45°39' W 122°45'0 0.3
2015-Jan-23 13:33N 45°39' W 122°45'0 0.0
2015-Jan-23 12:33N 45°39' W 122°45'1 1.4
2015-Jan-23 11:33N 45°38' W 122°47'5 4.9
2015-Jan-23 10:31N 45°34' W 122°44'0 0.0
2015-Jan-23 09:31N 45°34' W 122°44'0 0.0
2015-Jan-23 08:31N 45°34' W 122°44'0 0.0
2015-Jan-23 07:28N 45°34' W 122°44'0 0.0
2015-Jan-23 06:28N 45°34' W 122°44'0 0.0
2015-Jan-23 05:26N 45°34' W 122°44'0 0.0
2015-Jan-23 04:31N 45°34' W 122°44'0 0.0
2015-Jan-23 03:28N 45°34' W 122°44'0 0.0
2015-Jan-23 02:32N 45°34' W 122°44'0 0.0
2015-Jan-23 01:26N 45°34' W 122°44'0 0.0
2015-Jan-23 00:25N 45°34' W 122°44'0 0.0
2015-Jan-22 23:28N 45°34' W 122°44'0 0.0
2015-Jan-22 22:28N 45°34' W 122°44'0 0.0
2015-Jan-22 21:28N 45°34' W 122°44'0 0.0
2015-Jan-22 20:28N 45°34' W 122°44'0 0.0
2015-Jan-22 19:28N 45°34' W 122°44'0 0.0
2015-Jan-22 18:31N 45°34' W 122°44'0 0.0
2015-Jan-22 17:28N 45°34' W 122°44'0 0.0
2015-Jan-22 16:31N 45°34' W 122°44'0 0.0
2015-Jan-22 15:28N 45°34' W 122°44'0 0.0
2015-Jan-22 14:22N 45°34' W 122°44'0 0.0
2015-Jan-22 13:28N 45°34' W 122°44'0 0.0
2015-Jan-22 12:31N 45°34' W 122°44'0 0.0
2015-Jan-22 11:28N 45°34' W 122°44'0 0.0
2015-Jan-22 10:31N 45°34' W 122°44'0 0.0
2015-Jan-22 09:31N 45°34' W 122°44'0 0.0
2015-Jan-22 08:28N 45°34' W 122°44'0 0.0
2015-Jan-22 07:28N 45°34' W 122°44'0 0.0
2015-Jan-22 06:31N 45°34' W 122°44'0 0.0
2015-Jan-22 05:25N 45°34' W 122°44'0 0.0
2015-Jan-22 04:28N 45°34' W 122°44'0 0.0
2015-Jan-22 03:31N 45°34' W 122°44'0 0.0
2015-Jan-22 02:31N 45°34' W 122°44'3 3.0
2015-Jan-22 01:33N 45°36' W 122°47'1 1.3
2015-Jan-22 00:33N 45°37' W 122°47'4 4.0
2015-Jan-21 23:34N 45°34' W 122°44'0 0.3
2015-Jan-21 22:50N 45°34' W 122°44'0 0.0
2015-Jan-21 22:46N 45°34' W 122°44'0 0.0
2015-Jan-21 22:34N 45°34' W 122°44'0 0.0
2015-Jan-21 21:33N 45°34' W 122°44'0 0.1
2015-Jan-21 20:33N 45°34' W 122°44'2 1.6
2015-Jan-21 19:34N 45°35' W 122°45'2 1.6
2015-Jan-21 18:33N 45°36' W 122°47'0 0.1
2015-Jan-21 17:34N 45°36' W 122°47'1 1.1
2015-Jan-21 16:34N 45°37' W 122°47'2 2.1
2015-Jan-21 15:33N 45°39' W 122°45'  

Dump ship's entire track history